createdAt,value
2022-10-22T00:00:47.716Z,69.84
2022-10-22T00:04:52.202Z,69.43
2022-10-22T00:08:55.912Z,69.61
2022-10-22T00:12:59.609Z,69.36
2022-10-22T00:17:05.852Z,69.32
2022-10-22T00:21:13.974Z,69.47
2022-10-22T00:25:17.711Z,69.70
2022-10-22T00:29:21.602Z,69.44
2022-10-22T00:33:26.468Z,69.10
2022-10-22T00:37:30.898Z,69.18
2022-10-22T00:41:34.325Z,69.12
2022-10-22T00:45:37.353Z,69.10
2022-10-22T00:49:46.339Z,68.92
2022-10-22T00:53:53.712Z,68.92
2022-10-22T00:57:58.653Z,69.45
2022-10-22T01:06:16.631Z,69.68
2022-10-22T01:10:34.410Z,69.46
2022-10-22T01:14:47.838Z,69.52
2022-10-22T01:19:00.561Z,69.63
2022-10-22T01:23:18.914Z,69.80
2022-10-22T01:27:32.342Z,69.88
2022-10-22T01:31:45.013Z,69.74
2022-10-22T01:35:48.471Z,69.67
2022-10-22T01:39:53.718Z,69.53
2022-10-22T01:43:56.935Z,69.53
2022-10-22T01:48:10.954Z,69.63
2022-10-22T01:52:25.828Z,69.74
2022-10-22T01:56:54.550Z,69.90
2022-10-22T02:01:04.403Z,70.08
2022-10-22T02:05:14.446Z,70.25
2022-10-22T02:09:21.615Z,70.44
2022-10-22T02:13:29.094Z,70.82
2022-10-22T02:17:35.747Z,71.19
2022-10-22T02:21:41.157Z,71.00
2022-10-22T02:25:51.023Z,71.35
2022-10-22T02:30:00.594Z,71.19
2022-10-22T02:34:10.720Z,71.21
2022-10-22T02:38:16.143Z,71.04
2022-10-22T02:42:19.847Z,70.97
2022-10-22T02:46:24.422Z,70.73
2022-10-22T02:50:27.883Z,70.59
2022-10-22T02:54:32.345Z,70.15
2022-10-22T02:58:35.682Z,70.26
2022-10-22T03:02:39.239Z,70.32
2022-10-22T03:06:44.912Z,70.58
2022-10-22T03:10:49.249Z,71.02
2022-10-22T03:14:52.947Z,71.06
2022-10-22T03:18:56.440Z,70.97
2022-10-22T03:23:00.161Z,71.47
2022-10-22T03:27:05.222Z,71.25
2022-10-22T03:31:08.193Z,71.64
2022-10-22T03:35:11.630Z,71.68
2022-10-22T03:39:16.447Z,71.79
2022-10-22T03:43:21.279Z,71.56
2022-10-22T03:47:25.051Z,71.43
2022-10-22T03:51:28.937Z,71.54
2022-10-22T03:55:31.965Z,71.65
2022-10-22T03:59:38.035Z,71.67
2022-10-22T04:03:42.007Z,71.50
2022-10-22T04:07:45.105Z,71.70
2022-10-22T04:11:48.502Z,71.44
2022-10-22T04:15:53.695Z,71.56
2022-10-22T04:19:57.158Z,71.62
2022-10-22T04:24:00.771Z,71.59
2022-10-22T04:28:03.828Z,72.02
2022-10-22T04:32:08.707Z,72.27
2022-10-22T04:36:15.036Z,72.24
2022-10-22T04:40:18.545Z,72.26
2022-10-22T04:44:21.686Z,72.25
2022-10-22T04:48:26.542Z,72.42
2022-10-22T04:52:29.939Z,72.29
2022-10-22T04:56:34.211Z,72.38
2022-10-22T05:00:37.636Z,72.42
2022-10-22T05:04:42.582Z,72.33
2022-10-22T05:08:45.663Z,72.39
2022-10-22T05:12:49.180Z,72.46
2022-10-22T05:16:53.821Z,72.32
2022-10-22T05:20:58.651Z,72.05
2022-10-22T05:25:02.169Z,72.18
2022-10-22T05:29:05.219Z,71.94
2022-10-22T05:33:08.746Z,71.84
2022-10-22T05:37:13.599Z,72.29
2022-10-22T05:41:19.006Z,72.33
2022-10-22T05:45:22.686Z,72.26
2022-10-22T05:49:25.988Z,72.40
2022-10-22T05:53:30.883Z,72.23
2022-10-22T05:57:34.332Z,72.02
2022-10-22T06:01:37.927Z,71.72
2022-10-22T06:05:41.394Z,72.04
2022-10-22T06:09:47.788Z,72.39
2022-10-22T06:13:52.567Z,72.28
2022-10-22T06:17:56.046Z,72.62
2022-10-22T06:21:59.453Z,72.68
2022-10-22T06:26:05.237Z,73.69
2022-10-22T06:30:09.730Z,74.10
2022-10-22T06:34:15.489Z,74.23
2022-10-22T06:38:18.988Z,74.60
2022-10-22T06:42:23.890Z,74.61
2022-10-22T06:46:27.649Z,75.38
2022-10-22T06:50:31.317Z,75.24
2022-10-22T06:54:34.997Z,75.77
2022-10-22T06:58:39.807Z,75.52
2022-10-22T07:02:43.221Z,74.88
2022-10-22T07:06:46.577Z,75.06
2022-10-22T07:10:50.132Z,74.77
2022-10-22T07:14:54.628Z,74.72
2022-10-22T07:18:58.129Z,74.50
2022-10-22T07:23:02.197Z,74.21
2022-10-22T07:27:09.400Z,74.40
2022-10-22T07:31:17.364Z,74.06
2022-10-22T07:35:20.768Z,73.26
2022-10-22T07:39:26.332Z,72.71
2022-10-22T07:43:29.875Z,72.97
2022-10-22T07:47:34.751Z,72.73
2022-10-22T07:51:37.785Z,72.77
2022-10-22T07:55:41.265Z,72.59
2022-10-22T07:59:44.784Z,72.09
2022-10-22T08:03:49.678Z,72.13
2022-10-22T08:07:53.441Z,71.53
2022-10-22T08:11:56.702Z,71.69
2022-10-22T08:16:01.278Z,71.10
2022-10-22T08:20:06.500Z,71.33
2022-10-22T08:24:09.737Z,71.07
2022-10-22T08:28:12.821Z,70.68
2022-10-22T08:32:16.287Z,70.73
2022-10-22T08:36:21.067Z,71.30
2022-10-22T08:40:35.150Z,71.23
2022-10-22T08:44:54.672Z,71.12
2022-10-22T08:49:00.495Z,70.99
2022-10-22T08:53:09.698Z,71.10
2022-10-22T08:57:25.670Z,71.47
2022-10-22T09:01:35.736Z,70.48
2022-10-22T09:05:48.218Z,70.39
2022-10-22T09:09:55.743Z,69.89
2022-10-22T09:14:01.104Z,69.27
2022-10-22T09:18:19.169Z,69.60
2022-10-22T09:26:42.929Z,69.10
2022-10-22T09:30:46.804Z,69.25
2022-10-22T09:34:51.532Z,69.34
2022-10-22T09:38:54.753Z,69.77
2022-10-22T09:42:59.670Z,69.40
2022-10-22T09:47:06.075Z,69.47
2022-10-22T09:51:17.929Z,70.32
2022-10-22T09:55:21.419Z,70.70
2022-10-22T09:59:34.808Z,70.90
2022-10-22T10:03:37.797Z,71.01
2022-10-22T10:07:41.191Z,71.31
2022-10-22T10:11:50.138Z,71.50
2022-10-22T10:16:00.098Z,72.17
2022-10-22T10:20:18.605Z,72.13
2022-10-22T10:24:32.625Z,72.53
2022-10-22T10:28:52.616Z,72.22
2022-10-22T10:33:18.035Z,72.30
2022-10-22T10:37:25.338Z,71.81
2022-10-22T10:41:41.838Z,71.60
2022-10-22T10:45:55.850Z,71.78
2022-10-22T10:50:19.029Z,71.72
2022-10-22T10:54:33.342Z,71.49
2022-10-22T10:58:47.589Z,71.72
2022-10-22T11:03:27.801Z,71.51
2022-10-22T11:07:40.535Z,71.49
2022-10-22T11:11:49.046Z,71.61
2022-10-22T11:15:59.516Z,72.05
2022-10-22T11:20:07.961Z,71.73
2022-10-22T11:24:21.953Z,71.37
2022-10-22T11:28:30.092Z,71.05
2022-10-22T11:32:34.978Z,70.93
2022-10-22T11:36:39.154Z,70.75
2022-10-22T11:40:49.506Z,71.16
2022-10-22T11:45:03.534Z,71.47
2022-10-22T11:49:19.422Z,71.42
2022-10-22T11:53:33.013Z,71.16
2022-10-22T11:57:40.805Z,71.14
2022-10-22T12:01:44.429Z,71.49
2022-10-22T12:05:48.601Z,71.92
2022-10-22T12:09:54.156Z,72.31
2022-10-22T12:14:16.387Z,72.35
2022-10-22T12:18:19.678Z,71.84
2022-10-22T12:22:25.675Z,72.00
2022-10-22T12:30:42.066Z,71.73
2022-10-22T12:38:53.392Z,70.92
2022-10-22T12:42:58.547Z,71.46
2022-10-22T12:47:03.783Z,70.89
2022-10-22T12:51:09.641Z,71.05
2022-10-22T12:55:18.299Z,70.86
2022-10-22T12:59:24.077Z,70.56
2022-10-22T13:03:32.310Z,70.79
2022-10-22T13:07:41.045Z,70.22
2022-10-22T13:11:52.145Z,70.69
2022-10-22T13:15:57.445Z,69.83
2022-10-22T13:20:14.618Z,71.16
2022-10-22T13:24:23.200Z,70.60
2022-10-22T13:28:27.208Z,70.30
2022-10-22T13:32:33.020Z,70.09
2022-10-22T13:36:38.328Z,70.14
2022-10-22T13:40:41.323Z,70.11
2022-10-22T13:44:44.823Z,69.56
2022-10-22T13:48:49.937Z,68.89
2022-10-22T13:52:56.697Z,68.44
2022-10-22T13:56:59.990Z,68.85
2022-10-22T14:01:09.362Z,68.75
2022-10-22T14:05:12.712Z,68.23
2022-10-22T14:09:18.051Z,68.61
2022-10-22T14:13:22.600Z,68.76
2022-10-22T14:17:26.213Z,68.90
2022-10-22T14:21:31.825Z,68.92
2022-10-22T14:25:37.067Z,69.10
2022-10-22T14:29:40.529Z,69.24
2022-10-22T14:33:43.546Z,69.15
2022-10-22T14:37:46.977Z,69.02
2022-10-22T14:41:51.489Z,69.81
2022-10-22T14:45:56.848Z,69.72
2022-10-22T14:50:02.011Z,70.10
2022-10-22T14:54:05.773Z,69.07
2022-10-22T14:58:10.396Z,68.60
2022-10-22T15:02:15.332Z,67.55
2022-10-22T15:06:18.326Z,66.12
2022-10-22T15:10:22.063Z,66.30
2022-10-22T15:14:26.633Z,66.88
2022-10-22T15:18:30.879Z,67.12
2022-10-22T15:22:35.973Z,66.68
2022-10-22T15:26:39.400Z,65.79
2022-10-22T15:30:44.028Z,65.96
2022-10-22T15:34:47.518Z,66.25
2022-10-22T15:38:50.770Z,65.63
2022-10-22T15:47:18.886Z,66.21
2022-10-22T15:51:22.797Z,66.38
2022-10-22T15:55:26.171Z,66.83
2022-10-22T15:59:29.804Z,67.24
2022-10-22T16:03:35.231Z,67.90
2022-10-22T16:07:38.667Z,68.48
2022-10-22T16:11:43.106Z,69.30
2022-10-22T16:15:46.469Z,69.77
2022-10-22T16:19:51.242Z,70.07
2022-10-22T16:23:54.439Z,70.21
2022-10-22T16:27:57.836Z,70.34
2022-10-22T16:32:01.224Z,70.48
2022-10-22T16:36:06.584Z,71.03
2022-10-22T16:40:11.722Z,71.05
2022-10-22T16:44:15.446Z,72.36
2022-10-22T16:48:20.056Z,72.54
2022-10-22T16:52:25.229Z,72.42
2022-10-22T16:56:28.258Z,72.45
2022-10-22T17:00:31.530Z,72.53
2022-10-22T17:04:36.488Z,73.58
2022-10-22T17:08:42.588Z,73.90
2022-10-22T17:12:46.049Z,74.14
2022-10-22T17:16:54.221Z,73.38
2022-10-22T17:21:00.087Z,73.16
2022-10-22T17:25:15.974Z,73.80
2022-10-22T17:29:21.391Z,74.40
2022-10-22T17:33:24.603Z,74.70
2022-10-22T17:37:28.078Z,74.76
2022-10-22T17:41:34.986Z,74.76
2022-10-22T17:45:38.000Z,75.15
2022-10-22T17:49:41.474Z,75.20
2022-10-22T17:53:46.332Z,74.99
2022-10-22T17:57:50.846Z,74.82
2022-10-22T18:01:56.936Z,75.11
2022-10-22T18:06:07.884Z,75.12
2022-10-22T18:10:12.311Z,75.48
2022-10-22T18:14:17.885Z,75.15
2022-10-22T18:18:21.239Z,75.19
2022-10-22T18:22:24.310Z,74.22
2022-10-22T18:26:28.160Z,73.67
2022-10-22T18:30:32.471Z,73.70
2022-10-22T18:34:36.776Z,73.57
2022-10-22T18:38:40.075Z,73.36
2022-10-22T18:42:43.834Z,73.52
2022-10-22T18:46:48.855Z,72.99
2022-10-22T18:51:01.391Z,72.88
2022-10-22T18:55:05.006Z,72.92
2022-10-22T18:59:08.795Z,73.22
2022-10-22T19:03:14.274Z,74.05
2022-10-22T19:11:27.443Z,76.01
2022-10-22T19:15:30.631Z,75.56
2022-10-22T19:19:35.547Z,75.60
2022-10-22T19:23:39.193Z,75.60
2022-10-22T19:27:42.646Z,75.47
2022-10-22T19:31:47.069Z,75.00
2022-10-22T19:35:51.527Z,74.52
2022-10-22T19:39:55.772Z,74.43
2022-10-22T19:44:01.200Z,74.24
2022-10-22T19:48:06.961Z,74.14
2022-10-22T19:52:14.356Z,73.72
2022-10-22T19:56:21.360Z,73.55
2022-10-22T20:00:27.016Z,73.76
2022-10-22T20:04:32.420Z,73.63
2022-10-22T20:08:39.898Z,73.41
2022-10-22T20:12:44.150Z,74.58
2022-10-22T20:16:48.088Z,74.71
2022-10-22T20:20:52.363Z,75.52
2022-10-22T20:24:57.031Z,76.10
2022-10-22T20:29:01.294Z,75.30
2022-10-22T20:33:04.534Z,74.60
2022-10-22T20:37:08.140Z,75.52
2022-10-22T20:41:15.927Z,76.03
2022-10-22T20:45:19.343Z,76.31
2022-10-22T20:49:22.812Z,75.99
2022-10-22T20:53:26.351Z,74.93
2022-10-22T20:57:31.491Z,75.05
2022-10-22T21:01:37.787Z,75.42
2022-10-22T21:05:41.359Z,75.78
2022-10-22T21:09:44.911Z,76.34
2022-10-22T21:13:49.281Z,76.66
2022-10-22T21:17:52.310Z,76.50
2022-10-22T21:21:55.648Z,76.89
2022-10-22T21:25:59.892Z,77.41
2022-10-22T21:30:04.973Z,77.34
2022-10-22T21:34:08.333Z,77.80
2022-10-22T21:38:11.856Z,77.32
2022-10-22T21:42:16.654Z,77.15
2022-10-22T21:46:23.311Z,77.98
2022-10-22T21:50:26.549Z,77.59
2022-10-22T21:54:29.963Z,76.92
2022-10-22T21:58:34.924Z,77.16
2022-10-22T22:02:39.608Z,77.39
2022-10-22T22:06:42.749Z,77.08
2022-10-22T22:10:46.439Z,76.62
2022-10-22T22:14:50.101Z,76.35
2022-10-22T22:18:55.197Z,76.67
2022-10-22T22:22:58.182Z,77.08
2022-10-22T22:27:01.836Z,77.28
2022-10-22T22:31:14.647Z,76.18
2022-10-22T22:35:20.098Z,75.92
2022-10-22T22:39:25.250Z,76.13
2022-10-22T22:43:28.738Z,76.08
2022-10-22T22:47:31.929Z,75.58
2022-10-22T22:51:36.995Z,74.90
2022-10-22T22:55:40.383Z,74.75
2022-10-22T22:59:44.128Z,74.96
2022-10-22T23:03:49.428Z,74.85
2022-10-22T23:07:54.269Z,74.60
2022-10-22T23:11:57.320Z,73.95
2022-10-22T23:16:01.090Z,73.96
2022-10-22T23:20:05.001Z,74.28
2022-10-22T23:24:13.512Z,74.44
2022-10-22T23:28:16.451Z,74.46
2022-10-22T23:32:19.944Z,74.39
2022-10-22T23:36:23.382Z,74.26
2022-10-22T23:40:28.095Z,74.31
2022-10-22T23:44:31.050Z,74.72
2022-10-22T23:48:34.889Z,74.91
2022-10-22T23:52:37.971Z,75.22
2022-10-22T23:56:42.863Z,75.17
